createdAt,value
2017-09-15T00:01:48.411Z,11.00
2017-09-15T00:04:15.967Z,10.90
2017-09-15T00:06:44.260Z,10.90
2017-09-15T00:09:11.748Z,10.90
2017-09-15T00:11:39.235Z,10.90
2017-09-15T00:14:06.755Z,10.90
2017-09-15T00:16:34.292Z,10.90
2017-09-15T00:19:01.780Z,10.80
2017-09-15T00:21:29.276Z,10.80
2017-09-15T00:23:56.791Z,10.80
2017-09-15T00:26:24.280Z,10.80
2017-09-15T00:28:51.815Z,10.80
2017-09-15T00:31:19.313Z,10.80
2017-09-15T00:33:46.811Z,10.80
2017-09-15T00:36:15.105Z,10.80
2017-09-15T00:38:42.602Z,10.80
2017-09-15T00:41:10.092Z,10.80
2017-09-15T00:43:38.376Z,10.90
2017-09-15T00:46:06.648Z,10.80
2017-09-15T00:48:34.909Z,10.80
2017-09-15T00:51:03.208Z,10.80
2017-09-15T00:53:30.691Z,10.80
2017-09-15T00:55:58.940Z,10.80
2017-09-15T00:58:26.468Z,10.80
2017-09-15T01:00:55.619Z,10.90
2017-09-15T01:03:23.122Z,10.90
2017-09-15T01:05:51.436Z,10.90
2017-09-15T01:08:18.930Z,10.90
2017-09-15T01:10:46.449Z,10.90
2017-09-15T01:13:13.944Z,10.90
2017-09-15T01:15:41.481Z,10.90
2017-09-15T01:18:08.988Z,10.90
2017-09-15T01:20:37.245Z,10.90
2017-09-15T01:23:04.772Z,10.80
2017-09-15T01:25:32.261Z,10.80
2017-09-15T01:27:59.754Z,10.80
2017-09-15T01:30:27.269Z,10.80
2017-09-15T01:32:54.805Z,10.80
2017-09-15T01:35:22.339Z,10.80
2017-09-15T01:37:49.835Z,10.80
2017-09-15T01:40:17.332Z,10.80
2017-09-15T01:42:44.853Z,10.80
2017-09-15T01:45:12.382Z,10.80
2017-09-15T01:47:39.895Z,10.80
2017-09-15T01:50:08.196Z,10.80
2017-09-15T01:52:35.684Z,10.80
2017-09-15T01:55:03.193Z,10.80
2017-09-15T01:57:30.692Z,10.80
2017-09-15T01:59:58.230Z,10.80
2017-09-15T02:02:25.727Z,10.70
2017-09-15T02:04:53.223Z,10.70
2017-09-15T02:07:20.726Z,10.70
2017-09-15T02:09:48.215Z,10.60
2017-09-15T02:12:16.504Z,10.60
2017-09-15T02:14:44.781Z,10.60
2017-09-15T02:17:12.280Z,10.50
2017-09-15T02:19:39.803Z,10.50
2017-09-15T02:22:07.306Z,10.40
2017-09-15T02:24:34.808Z,10.40
2017-09-15T02:27:02.330Z,10.30
2017-09-15T02:29:29.843Z,10.30
2017-09-15T02:31:57.340Z,10.30
2017-09-15T02:34:24.864Z,10.20
2017-09-15T02:36:52.370Z,10.20
2017-09-15T02:39:19.876Z,10.10
2017-09-15T02:41:47.366Z,10.10
2017-09-15T02:44:14.878Z,10.00
2017-09-15T02:46:42.374Z,10.00
2017-09-15T02:49:09.888Z,9.90
2017-09-15T02:51:37.390Z,9.90
2017-09-15T02:54:04.879Z,9.90
2017-09-15T02:56:33.168Z,9.80
2017-09-15T02:59:00.670Z,9.80
2017-09-15T03:01:28.169Z,9.80
2017-09-15T03:03:55.702Z,9.80
2017-09-15T03:06:23.185Z,9.80
2017-09-15T03:08:51.446Z,9.80
2017-09-15T03:11:19.724Z,9.80
2017-09-15T03:13:47.988Z,9.80
2017-09-15T03:16:15.496Z,9.80
2017-09-15T03:18:43.013Z,9.70
2017-09-15T03:21:11.259Z,9.60
2017-09-15T03:23:38.765Z,9.60
2017-09-15T03:26:06.268Z,9.60
2017-09-15T03:28:33.768Z,9.50
2017-09-15T03:31:02.055Z,9.40
2017-09-15T03:33:29.563Z,9.40
2017-09-15T03:35:57.080Z,9.40
2017-09-15T03:38:24.564Z,9.30
2017-09-15T03:40:52.103Z,9.30
2017-09-15T03:43:19.584Z,9.20
2017-09-15T03:45:47.133Z,9.20
2017-09-15T03:48:14.625Z,9.20
2017-09-15T03:50:42.889Z,9.10
2017-09-15T03:53:10.401Z,9.00
2017-09-15T03:55:37.887Z,9.00
2017-09-15T03:58:05.409Z,9.00
2017-09-15T04:00:32.896Z,9.00
2017-09-15T04:03:00.391Z,9.00
2017-09-15T04:05:28.679Z,8.90
2017-09-15T04:07:56.176Z,8.90
2017-09-15T04:10:23.712Z,8.80
2017-09-15T04:12:51.197Z,8.80
2017-09-15T04:15:18.684Z,8.80
2017-09-15T04:17:46.951Z,8.70
2017-09-15T04:20:14.454Z,8.70
2017-09-15T04:22:41.939Z,8.70
2017-09-15T04:25:09.445Z,8.60
2017-09-15T04:27:36.942Z,8.60
2017-09-15T04:30:04.484Z,8.60
2017-09-15T04:32:31.971Z,8.50
2017-09-15T04:34:59.464Z,8.50
2017-09-15T04:37:27.743Z,8.40
2017-09-15T04:39:55.245Z,8.40
2017-09-15T04:42:22.745Z,8.40
2017-09-15T04:44:51.004Z,8.30
2017-09-15T04:47:18.526Z,8.30
2017-09-15T04:49:46.048Z,8.30
2017-09-15T04:52:13.544Z,8.20
2017-09-15T04:54:41.048Z,8.20
2017-09-15T04:57:09.307Z,8.10
2017-09-15T04:59:36.832Z,8.10
2017-09-15T05:02:04.320Z,8.10
2017-09-15T05:04:31.823Z,8.10
2017-09-15T05:06:59.317Z,8.10
2017-09-15T05:09:26.825Z,8.00
2017-09-15T05:11:54.384Z,8.00
2017-09-15T05:14:22.628Z,8.00
2017-09-15T05:16:50.142Z,7.90
2017-09-15T05:19:17.632Z,7.90
2017-09-15T05:21:45.148Z,7.90
2017-09-15T05:24:12.631Z,7.90
2017-09-15T05:26:40.150Z,7.90
2017-09-15T05:29:07.688Z,7.90
2017-09-15T05:31:35.952Z,7.80
2017-09-15T05:34:04.209Z,7.90
2017-09-15T05:36:31.704Z,7.80
2017-09-15T05:38:59.190Z,7.90
2017-09-15T05:41:26.707Z,7.90
2017-09-15T05:43:54.202Z,7.90
2017-09-15T05:46:21.734Z,7.90
2017-09-15T05:48:49.225Z,7.90
2017-09-15T05:51:16.770Z,7.90
2017-09-15T05:53:44.281Z,7.90
2017-09-15T05:56:12.552Z,7.90
2017-09-15T05:58:40.823Z,7.90
2017-09-15T06:01:08.315Z,7.90
2017-09-15T06:03:35.811Z,8.00
2017-09-15T06:06:03.295Z,8.00
2017-09-15T06:08:30.815Z,8.00
2017-09-15T06:10:58.353Z,8.00
2017-09-15T06:13:25.858Z,8.10
2017-09-15T06:15:53.335Z,8.10
2017-09-15T06:18:20.845Z,8.10
2017-09-15T06:20:49.104Z,8.10
2017-09-15T06:23:16.632Z,8.10
2017-09-15T06:25:44.125Z,8.20
2017-09-15T06:28:12.417Z,8.30
2017-09-15T06:30:39.932Z,8.20
2017-09-15T06:33:07.413Z,8.30
2017-09-15T06:35:35.664Z,8.40
2017-09-15T06:38:03.178Z,8.40
2017-09-15T06:40:30.666Z,8.50
2017-09-15T06:42:58.191Z,8.50
2017-09-15T06:45:25.680Z,8.60
2017-09-15T06:47:53.178Z,8.60
2017-09-15T06:50:21.448Z,8.70
2017-09-15T06:52:49.707Z,8.70
2017-09-15T06:55:17.241Z,8.70
2017-09-15T06:57:44.731Z,8.80
2017-09-15T07:00:12.983Z,9.00
2017-09-15T07:02:41.247Z,9.10
2017-09-15T07:05:09.508Z,9.20
2017-09-15T07:07:37.045Z,9.10
2017-09-15T07:10:04.528Z,9.30
2017-09-15T07:12:32.057Z,9.40
2017-09-15T07:14:59.553Z,9.50
2017-09-15T07:17:27.816Z,9.70
2017-09-15T07:19:55.329Z,9.70
2017-09-15T07:22:22.853Z,9.80
2017-09-15T07:24:50.346Z,9.90
2017-09-15T07:27:17.874Z,9.90
2017-09-15T07:29:45.371Z,10.00
2017-09-15T07:32:12.877Z,10.10
2017-09-15T07:34:41.148Z,10.20
2017-09-15T07:37:09.398Z,10.30
2017-09-15T07:39:36.944Z,10.30
2017-09-15T07:42:04.474Z,10.40
2017-09-15T07:44:31.984Z,10.50
2017-09-15T07:46:59.501Z,10.50
2017-09-15T07:49:27.020Z,10.60
2017-09-15T07:51:54.526Z,10.70
2017-09-15T07:54:22.058Z,10.80
2017-09-15T07:56:49.560Z,10.90
2017-09-15T07:59:17.080Z,10.90
2017-09-15T08:01:44.612Z,11.00
2017-09-15T08:04:12.104Z,11.10
2017-09-15T08:06:40.134Z,11.10
2017-09-15T08:09:07.641Z,11.20
2017-09-15T08:11:35.133Z,11.30
2017-09-15T08:14:03.468Z,11.40
2017-09-15T08:16:30.969Z,11.40
2017-09-15T08:18:58.484Z,11.50
2017-09-15T08:21:25.984Z,11.50
2017-09-15T08:23:54.245Z,11.60
2017-09-15T08:26:22.530Z,11.70
2017-09-15T08:28:50.779Z,11.70
2017-09-15T08:31:18.300Z,11.70
2017-09-15T08:33:45.811Z,11.80
2017-09-15T08:36:13.308Z,11.80
2017-09-15T08:38:40.860Z,11.80
2017-09-15T08:41:08.347Z,11.80
2017-09-15T08:43:35.831Z,11.90
2017-09-15T08:46:03.346Z,11.90
2017-09-15T08:48:30.836Z,11.90
2017-09-15T08:50:58.345Z,11.90
2017-09-15T08:53:25.857Z,11.90
2017-09-15T08:55:54.107Z,11.90
2017-09-15T08:58:21.628Z,11.90
2017-09-15T09:00:49.133Z,11.90
2017-09-15T09:03:16.645Z,11.90
2017-09-15T09:05:44.130Z,12.00
2017-09-15T09:08:11.640Z,12.10
2017-09-15T09:10:39.124Z,12.10
2017-09-15T09:13:06.647Z,12.10
2017-09-15T09:15:34.143Z,12.10
2017-09-15T09:18:01.628Z,12.10
2017-09-15T09:20:29.139Z,12.00
2017-09-15T09:22:56.631Z,12.00
2017-09-15T09:25:24.132Z,12.00
2017-09-15T09:27:51.620Z,12.10
2017-09-15T09:30:19.147Z,12.20
2017-09-15T09:32:46.635Z,12.30
2017-09-15T09:35:14.152Z,12.40
2017-09-15T09:37:42.399Z,12.60
2017-09-15T09:40:09.904Z,12.60
2017-09-15T09:42:37.439Z,12.70
2017-09-15T09:45:05.696Z,12.80
2017-09-15T09:47:33.208Z,12.80
2017-09-15T09:50:00.729Z,12.90
2017-09-15T09:52:28.988Z,12.90
2017-09-15T09:54:56.507Z,12.90
2017-09-15T09:57:24.005Z,12.90
2017-09-15T09:59:52.307Z,13.10
2017-09-15T10:02:19.807Z,13.10
2017-09-15T10:04:47.310Z,13.10
2017-09-15T10:07:14.847Z,13.20
2017-09-15T10:09:43.104Z,13.30
2017-09-15T10:12:10.593Z,13.30
2017-09-15T10:14:38.870Z,13.40
2017-09-15T10:17:07.120Z,13.40
2017-09-15T10:19:34.654Z,13.40
2017-09-15T10:22:02.142Z,13.50
2017-09-15T10:24:30.397Z,13.50
2017-09-15T10:26:57.900Z,13.50
2017-09-15T10:29:25.416Z,13.60
2017-09-15T10:31:52.943Z,13.70
2017-09-15T10:34:20.431Z,13.70
2017-09-15T10:36:47.906Z,13.80
2017-09-15T10:39:15.421Z,13.80
2017-09-15T10:41:42.908Z,13.90
2017-09-15T10:44:10.425Z,14.00
2017-09-15T10:46:37.955Z,14.10
2017-09-15T10:49:05.452Z,14.20
2017-09-15T10:51:32.947Z,14.20
2017-09-15T10:54:01.225Z,14.40
2017-09-15T10:56:29.500Z,14.50
2017-09-15T10:59:03.495Z,14.60
2017-09-15T11:01:30.993Z,14.50
2017-09-15T11:03:58.543Z,14.60
2017-09-15T11:06:26.056Z,14.60
2017-09-15T11:08:53.557Z,14.60
2017-09-15T11:11:21.048Z,14.60
2017-09-15T11:13:48.591Z,14.60
2017-09-15T11:16:16.091Z,14.50
2017-09-15T11:18:43.574Z,14.40
2017-09-15T11:21:11.089Z,14.30
2017-09-15T11:23:38.613Z,14.20
2017-09-15T11:26:06.149Z,14.10
2017-09-15T11:28:33.637Z,14.00
2017-09-15T11:31:01.124Z,13.90
2017-09-15T11:33:28.631Z,13.80
2017-09-15T11:35:56.128Z,13.80
2017-09-15T11:38:23.662Z,13.70
2017-09-15T11:40:51.152Z,13.60
2017-09-15T11:43:18.639Z,13.60
2017-09-15T11:45:46.152Z,13.60
2017-09-15T11:48:13.636Z,13.70
2017-09-15T11:50:41.931Z,13.70
2017-09-15T11:53:09.661Z,13.70
2017-09-15T11:55:37.161Z,13.60
2017-09-15T11:58:04.719Z,13.60
2017-09-15T12:00:32.216Z,13.60
2017-09-15T12:02:59.715Z,13.50
2017-09-15T12:05:27.989Z,13.50
2017-09-15T12:07:56.263Z,13.50
2017-09-15T12:10:24.622Z,13.40
2017-09-15T12:12:52.132Z,13.40
2017-09-15T12:15:19.615Z,13.40
2017-09-15T12:17:47.123Z,13.50
2017-09-15T12:20:14.605Z,13.50
2017-09-15T12:22:42.125Z,13.50
2017-09-15T12:25:10.385Z,13.60
2017-09-15T12:27:38.677Z,13.80
2017-09-15T12:30:06.180Z,13.70
2017-09-15T12:32:33.668Z,13.90
2017-09-15T12:35:01.168Z,14.10
2017-09-15T12:37:28.673Z,14.20
2017-09-15T12:39:56.160Z,14.20
2017-09-15T12:42:24.433Z,14.20
2017-09-15T12:44:51.928Z,14.20
2017-09-15T12:47:19.474Z,14.20
2017-09-15T12:49:46.984Z,14.20
2017-09-15T12:52:14.476Z,14.20
2017-09-15T12:54:42.000Z,14.10
2017-09-15T12:57:09.500Z,14.10
2017-09-15T12:59:37.011Z,14.20
2017-09-15T13:02:04.527Z,14.30
2017-09-15T13:04:32.006Z,14.40
2017-09-15T13:06:59.524Z,14.40
2017-09-15T13:09:27.118Z,14.50
2017-09-15T13:11:54.657Z,14.60
2017-09-15T13:14:22.198Z,14.70
2017-09-15T13:16:49.683Z,14.80
2017-09-15T13:19:17.197Z,14.90
2017-09-15T13:21:44.957Z,15.00
2017-09-15T13:24:12.501Z,15.10
2017-09-15T13:26:40.816Z,15.20
2017-09-15T13:29:08.308Z,15.20
2017-09-15T13:31:35.842Z,15.30
2017-09-15T13:34:03.332Z,15.40
2017-09-15T13:36:30.824Z,15.40
2017-09-15T13:38:59.099Z,15.60
2017-09-15T13:41:27.356Z,15.60
2017-09-15T13:43:55.633Z,15.80
2017-09-15T13:46:23.887Z,15.90
2017-09-15T13:48:51.395Z,15.80
2017-09-15T13:51:18.946Z,15.90
2017-09-15T13:53:46.758Z,15.90
2017-09-15T13:56:14.295Z,15.90
2017-09-15T13:58:41.825Z,15.90
2017-09-15T14:01:09.355Z,15.90
2017-09-15T14:03:36.869Z,15.80
2017-09-15T14:06:04.372Z,15.70
2017-09-15T14:08:32.665Z,15.60
2017-09-15T14:11:00.248Z,15.50
2017-09-15T14:13:27.765Z,15.70
2017-09-15T14:15:56.040Z,15.70
2017-09-15T14:18:24.304Z,15.70
2017-09-15T14:20:52.607Z,15.80
2017-09-15T14:23:20.116Z,15.80
2017-09-15T14:25:47.617Z,16.00
2017-09-15T14:28:15.119Z,16.00
2017-09-15T14:30:42.638Z,15.90
2017-09-15T14:33:11.763Z,15.80
2017-09-15T14:35:39.265Z,15.60
2017-09-15T14:38:07.575Z,16.10
2017-09-15T14:40:36.242Z,16.10
2017-09-15T14:43:03.746Z,16.20
2017-09-15T14:45:31.261Z,16.20
2017-09-15T14:47:58.768Z,16.00
2017-09-15T14:50:26.260Z,15.80
2017-09-15T14:52:54.523Z,15.50
2017-09-15T14:55:22.780Z,15.50
2017-09-15T14:57:50.284Z,15.50
2017-09-15T15:00:17.775Z,15.40
2017-09-15T15:02:45.291Z,15.30
2017-09-15T15:05:12.789Z,15.30
2017-09-15T15:07:40.326Z,15.60
2017-09-15T15:10:07.833Z,16.00
2017-09-15T15:12:35.364Z,16.30
2017-09-15T15:15:02.906Z,16.70
2017-09-15T15:17:30.424Z,17.10
2017-09-15T15:19:57.964Z,17.30
2017-09-15T15:22:25.484Z,17.40
2017-09-15T15:24:52.975Z,17.40
2017-09-15T15:27:20.496Z,17.30
2017-09-15T15:29:48.037Z,17.10
2017-09-15T15:32:15.528Z,17.00
2017-09-15T15:34:43.025Z,17.10
2017-09-15T15:37:11.318Z,17.30
2017-09-15T15:39:38.812Z,17.30
2017-09-15T15:42:06.312Z,17.60
2017-09-15T15:44:33.828Z,17.80
2017-09-15T15:47:01.340Z,18.00
2017-09-15T15:49:28.840Z,18.20
2017-09-15T15:51:57.289Z,18.30
2017-09-15T15:54:24.793Z,18.60
2017-09-15T15:56:52.283Z,18.90
2017-09-15T15:59:19.800Z,18.80
2017-09-15T16:01:47.364Z,18.50
2017-09-15T16:04:14.872Z,18.10
2017-09-15T16:06:42.366Z,17.70
2017-09-15T16:09:09.875Z,17.30
2017-09-15T16:11:37.473Z,16.90
2017-09-15T16:14:04.991Z,16.60
2017-09-15T16:16:32.483Z,16.40
2017-09-15T16:19:00.033Z,16.10
2017-09-15T16:21:27.523Z,15.90
2017-09-15T16:23:55.008Z,15.70
2017-09-15T16:26:23.275Z,15.40
2017-09-15T16:28:51.533Z,15.30
2017-09-15T16:31:19.065Z,15.30
2017-09-15T16:33:46.561Z,15.20
2017-09-15T16:36:14.829Z,14.90
2017-09-15T16:38:48.666Z,14.70
2017-09-15T16:41:21.789Z,14.70
2017-09-15T16:43:54.874Z,14.60
2017-09-15T16:46:28.079Z,14.50
2017-09-15T16:49:01.192Z,14.40
2017-09-15T16:51:29.444Z,14.20
2017-09-15T16:53:57.234Z,14.20
2017-09-15T16:56:25.511Z,14.00
2017-09-15T16:58:53.772Z,14.00
2017-09-15T17:01:22.051Z,13.90
2017-09-15T17:03:50.337Z,13.80
2017-09-15T17:06:17.847Z,13.80
2017-09-15T17:08:46.136Z,13.80
2017-09-15T17:11:13.623Z,13.80
2017-09-15T17:13:41.915Z,13.70
2017-09-15T17:16:09.411Z,13.70
2017-09-15T17:18:37.668Z,13.60
2017-09-15T17:21:05.220Z,13.60
2017-09-15T17:23:32.720Z,13.60
2017-09-15T17:26:01.030Z,13.50
2017-09-15T17:28:28.528Z,13.50
2017-09-15T17:30:56.024Z,13.40
2017-09-15T17:33:24.304Z,13.20
2017-09-15T17:35:52.589Z,13.10
2017-09-15T17:38:20.861Z,13.10
2017-09-15T17:40:49.119Z,13.00
2017-09-15T17:43:17.422Z,12.90
2017-09-15T17:45:44.926Z,12.90
2017-09-15T17:48:12.423Z,12.80
2017-09-15T17:50:40.701Z,12.60
2017-09-15T17:53:08.196Z,12.60
2017-09-15T17:55:35.730Z,12.60
2017-09-15T17:58:03.229Z,12.50
2017-09-15T18:00:30.826Z,12.40
2017-09-15T18:02:58.324Z,12.30
2017-09-15T18:05:25.827Z,12.20
2017-09-15T18:07:54.104Z,12.00
2017-09-15T18:10:22.370Z,12.00
2017-09-15T18:12:49.897Z,12.00
2017-09-15T18:15:17.385Z,11.90
2017-09-15T18:17:44.934Z,11.90
2017-09-15T18:20:12.424Z,11.90
2017-09-15T18:22:39.958Z,11.80
2017-09-15T18:25:08.240Z,11.70
2017-09-15T18:27:36.495Z,11.70
2017-09-15T18:30:03.998Z,11.70
2017-09-15T18:32:31.480Z,11.70
2017-09-15T18:34:59.032Z,11.70
2017-09-15T18:37:26.528Z,11.70
2017-09-15T18:39:54.014Z,11.70
2017-09-15T18:42:21.530Z,11.70
2017-09-15T18:44:49.039Z,11.70
2017-09-15T18:47:16.567Z,11.70
2017-09-15T18:49:44.836Z,11.70
2017-09-15T18:52:13.117Z,11.70
2017-09-15T18:54:41.397Z,11.60
2017-09-15T18:57:09.702Z,11.70
2017-09-15T18:59:37.233Z,11.70
2017-09-15T19:02:05.495Z,11.70
2017-09-15T19:04:33.824Z,11.60
2017-09-15T19:07:01.363Z,11.60
2017-09-15T19:09:28.855Z,11.60
2017-09-15T19:11:56.414Z,11.60
2017-09-15T19:14:23.899Z,11.60
2017-09-15T19:16:52.216Z,11.70
2017-09-15T19:19:19.707Z,11.70
2017-09-15T19:21:47.252Z,11.70
2017-09-15T19:24:14.744Z,11.70
2017-09-15T19:26:43.016Z,11.80
2017-09-15T19:29:10.561Z,11.70
2017-09-15T19:31:38.095Z,11.80
2017-09-15T19:34:05.615Z,11.70
2017-09-15T19:36:33.148Z,11.70
2017-09-15T19:39:00.639Z,11.70
2017-09-15T19:41:28.194Z,11.60
2017-09-15T19:43:55.690Z,11.60
2017-09-15T19:46:23.205Z,11.60
2017-09-15T19:48:50.719Z,11.50
2017-09-15T19:51:18.243Z,11.50
2017-09-15T19:53:45.750Z,11.50
2017-09-15T19:56:14.105Z,11.40
2017-09-15T19:58:41.595Z,11.40
2017-09-15T20:01:09.848Z,11.40
2017-09-15T20:03:37.395Z,11.40
2017-09-15T20:06:04.900Z,11.40
2017-09-15T20:08:32.392Z,11.40
2017-09-15T20:10:59.904Z,11.40
2017-09-15T20:13:27.434Z,11.40
2017-09-15T20:15:54.961Z,11.30
2017-09-15T20:18:22.454Z,11.30
2017-09-15T20:20:50.768Z,11.20
2017-09-15T20:23:18.364Z,11.20
2017-09-15T20:25:45.869Z,11.10
2017-09-15T20:28:13.448Z,11.10
2017-09-15T20:30:40.988Z,11.10
2017-09-15T20:33:08.526Z,11.00
2017-09-15T20:35:36.859Z,10.90
2017-09-15T20:38:04.357Z,10.90
2017-09-15T20:40:32.865Z,10.80
2017-09-15T20:43:00.352Z,10.80
2017-09-15T20:45:27.907Z,10.70
2017-09-15T20:47:55.426Z,10.60
2017-09-15T20:50:22.924Z,10.60
2017-09-15T20:52:50.485Z,10.50
2017-09-15T20:55:17.991Z,10.50
2017-09-15T20:57:45.562Z,10.50
2017-09-15T21:00:13.107Z,10.40
2017-09-15T21:02:40.604Z,10.40
2017-09-15T21:05:08.931Z,10.30
2017-09-15T21:07:37.209Z,10.20
2017-09-15T21:10:05.476Z,10.20
2017-09-15T21:12:33.728Z,10.20
2017-09-15T21:15:01.299Z,10.20
2017-09-15T21:17:28.831Z,10.10
2017-09-15T21:19:56.328Z,10.10
2017-09-15T21:22:24.599Z,10.00
2017-09-15T21:24:52.891Z,10.00
2017-09-15T21:27:20.386Z,10.00
2017-09-15T21:29:47.908Z,10.00
2017-09-15T21:32:15.406Z,9.90
2017-09-15T21:34:42.948Z,9.90
2017-09-15T21:37:10.449Z,9.90
2017-09-15T21:39:37.932Z,9.90
2017-09-15T21:42:05.453Z,9.80
2017-09-15T21:44:32.948Z,9.80
2017-09-15T21:47:00.464Z,9.70
2017-09-15T21:49:27.940Z,9.70
2017-09-15T21:51:56.253Z,9.60
2017-09-15T21:54:23.746Z,9.60
2017-09-15T21:56:54.027Z,9.60
2017-09-15T21:59:21.597Z,9.60
2017-09-15T22:01:49.079Z,9.50
2017-09-15T22:04:22.199Z,9.50
2017-09-15T22:06:50.502Z,9.40
2017-09-15T22:09:17.988Z,9.40
2017-09-15T22:11:45.487Z,9.40
2017-09-15T22:14:13.751Z,9.30
2017-09-15T22:16:41.268Z,9.30
2017-09-15T22:19:09.547Z,9.30
2017-09-15T22:21:40.098Z,9.30
2017-09-15T22:24:08.389Z,9.30
2017-09-15T22:26:40.631Z,9.30
2017-09-15T22:29:08.156Z,9.30
2017-09-15T22:31:35.670Z,9.20
2017-09-15T22:34:05.074Z,9.20
2017-09-15T22:36:33.342Z,9.20
2017-09-15T22:39:00.829Z,9.20
2017-09-15T22:41:28.357Z,9.20
2017-09-15T22:43:56.695Z,9.20
2017-09-15T22:46:24.983Z,9.10
2017-09-15T22:48:52.532Z,9.10
2017-09-15T22:51:21.184Z,9.10
2017-09-15T22:53:48.722Z,9.10
2017-09-15T22:56:16.980Z,9.10
2017-09-15T22:58:45.254Z,9.10
2017-09-15T23:01:12.765Z,9.10
2017-09-15T23:03:40.264Z,9.00
2017-09-15T23:06:07.773Z,9.00
2017-09-15T23:08:35.300Z,9.00
2017-09-15T23:11:03.560Z,9.00
2017-09-15T23:13:31.806Z,9.00
2017-09-15T23:15:59.308Z,9.00
2017-09-15T23:18:26.793Z,8.90
2017-09-15T23:20:54.313Z,9.00
2017-09-15T23:23:22.570Z,8.90
2017-09-15T23:25:50.064Z,8.90
2017-09-15T23:28:17.562Z,8.90
2017-09-15T23:30:45.085Z,8.90
2017-09-15T23:33:12.581Z,8.90
2017-09-15T23:35:40.104Z,8.90
2017-09-15T23:38:07.647Z,8.90
2017-09-15T23:40:35.147Z,8.90
2017-09-15T23:43:02.637Z,8.80
2017-09-15T23:45:30.921Z,8.80
2017-09-15T23:47:59.177Z,8.70
2017-09-15T23:50:26.711Z,8.70
2017-09-15T23:52:54.199Z,8.70
2017-09-15T23:55:22.475Z,8.70
2017-09-15T23:57:50.753Z,8.70
